createdAt,value
2022-09-06T00:04:28.736Z,27.70
2022-09-06T00:09:31.971Z,27.60
2022-09-06T00:14:35.155Z,27.60
2022-09-06T00:19:39.702Z,27.60
2022-09-06T00:24:43.420Z,27.50
2022-09-06T00:29:46.702Z,27.50
2022-09-06T00:34:51.687Z,27.40
2022-09-06T00:39:56.157Z,27.40
2022-09-06T00:44:59.486Z,27.40
2022-09-06T00:50:04.528Z,27.30
2022-09-06T00:55:08.787Z,27.30
2022-09-06T01:00:12.593Z,27.20
2022-09-06T01:05:18.663Z,27.20
2022-09-06T01:10:33.215Z,27.20
2022-09-06T01:15:47.036Z,27.10
2022-09-06T01:21:05.994Z,27.10
2022-09-06T01:26:35.616Z,27.10
2022-09-06T01:31:45.782Z,27.00
2022-09-06T01:37:09.378Z,26.90
2022-09-06T01:42:17.748Z,26.90
2022-09-06T01:47:33.912Z,26.80
2022-09-06T01:52:46.081Z,26.80
2022-09-06T01:58:06.042Z,26.70
2022-09-06T02:03:17.576Z,26.70
2022-09-06T02:08:30.890Z,26.70
2022-09-06T02:13:39.754Z,26.60
2022-09-06T02:18:48.850Z,26.50
2022-09-06T02:23:54.792Z,26.50
2022-09-06T02:28:58.563Z,26.50
2022-09-06T02:34:04.013Z,26.40
2022-09-06T02:39:08.019Z,26.40
2022-09-06T02:44:11.318Z,26.30
2022-09-06T02:49:15.910Z,26.30
2022-09-06T02:54:19.061Z,26.30
2022-09-06T02:59:22.257Z,26.20
2022-09-06T03:04:29.129Z,26.20
2022-09-06T03:09:32.867Z,26.10
2022-09-06T03:14:37.131Z,26.10
2022-09-06T03:19:41.963Z,26.10
2022-09-06T03:24:45.128Z,26.10
2022-09-06T03:29:48.352Z,26.00
2022-09-06T03:34:53.001Z,26.00
2022-09-06T03:39:56.415Z,26.00
2022-09-06T03:44:59.923Z,25.90
2022-09-06T03:50:04.853Z,25.90
2022-09-06T03:55:08.902Z,25.80
2022-09-06T04:00:13.230Z,25.80
2022-09-06T04:05:18.599Z,25.80
2022-09-06T04:10:21.990Z,25.80
2022-09-06T04:15:25.220Z,25.90
2022-09-06T04:20:29.768Z,25.90
2022-09-06T04:25:33.077Z,25.90
2022-09-06T04:30:36.237Z,26.00
2022-09-06T04:35:40.782Z,26.10
2022-09-06T04:40:43.969Z,26.10
2022-09-06T04:45:47.202Z,26.10
2022-09-06T04:50:51.786Z,26.10
2022-09-06T04:55:57.434Z,26.10
2022-09-06T05:01:00.733Z,26.20
2022-09-06T05:06:12.197Z,26.20
2022-09-06T05:11:15.679Z,26.20
2022-09-06T05:16:19.085Z,26.20
2022-09-06T05:21:24.276Z,26.40
2022-09-06T05:26:27.469Z,26.60
2022-09-06T05:31:32.189Z,26.80
2022-09-06T05:36:38.705Z,26.90
2022-09-06T05:41:41.979Z,27.00
2022-09-06T05:46:46.272Z,27.10
2022-09-06T05:51:54.253Z,27.00
2022-09-06T05:56:57.465Z,27.10
2022-09-06T06:02:03.329Z,27.10
2022-09-06T06:07:11.312Z,27.10
2022-09-06T06:12:14.505Z,27.10
2022-09-06T06:17:17.711Z,27.20
2022-09-06T06:22:22.253Z,27.20
2022-09-06T06:27:25.502Z,27.30
2022-09-06T06:32:28.749Z,27.30
2022-09-06T06:37:34.277Z,27.30
2022-09-06T06:42:37.466Z,27.30
2022-09-06T06:47:40.681Z,27.30
2022-09-06T06:52:45.248Z,27.30
2022-09-06T06:57:48.567Z,27.40
2022-09-06T07:02:53.038Z,27.40
2022-09-06T07:07:57.642Z,27.40
2022-09-06T07:13:00.831Z,27.30
2022-09-06T07:18:04.052Z,27.30
2022-09-06T07:28:32.561Z,27.20
2022-09-06T07:33:36.546Z,27.30
2022-09-06T07:38:41.498Z,27.30
2022-09-06T07:43:44.965Z,27.40
2022-09-06T07:48:49.831Z,27.50
2022-09-06T07:54:12.890Z,27.60
2022-09-06T07:59:19.433Z,27.70
2022-09-06T08:04:22.660Z,27.80
2022-09-06T08:09:27.320Z,28.00
2022-09-06T08:14:30.628Z,28.10
2022-09-06T08:19:35.642Z,28.30
2022-09-06T08:24:40.247Z,28.60
2022-09-06T08:29:43.561Z,28.80
2022-09-06T08:34:46.823Z,29.10
2022-09-06T08:39:51.482Z,29.30
2022-09-06T08:44:58.727Z,29.50
2022-09-06T08:50:04.476Z,29.80
2022-09-06T08:55:24.561Z,30.00
2022-09-06T09:00:27.909Z,30.20
2022-09-06T09:05:34.805Z,30.40
2022-09-06T09:10:43.632Z,30.60
2022-09-06T09:15:46.945Z,30.80
2022-09-06T09:20:50.288Z,31.00
2022-09-06T09:26:00.155Z,31.20
2022-09-06T09:31:06.801Z,31.30
2022-09-06T09:36:14.137Z,31.50
2022-09-06T09:41:30.459Z,31.60
2022-09-06T09:46:35.647Z,31.80
2022-09-06T09:51:40.858Z,31.90
2022-09-06T09:56:51.713Z,32.10
2022-09-06T10:01:58.201Z,32.30
2022-09-06T10:07:14.743Z,32.40
2022-09-06T10:12:29.205Z,32.60
2022-09-06T10:17:34.499Z,32.70
2022-09-06T10:22:49.609Z,32.90
2022-09-06T10:28:11.229Z,33.00
2022-09-06T10:33:27.877Z,33.30
2022-09-06T10:38:42.949Z,33.40
2022-09-06T10:43:54.535Z,33.60
2022-09-06T10:48:58.878Z,33.80
2022-09-06T10:54:07.912Z,33.90
2022-09-06T11:10:09.202Z,34.60
2022-09-06T11:15:15.562Z,34.80
2022-09-06T11:20:29.812Z,35.00
2022-09-06T11:26:02.731Z,35.20
2022-09-06T11:36:37.920Z,35.50
2022-09-06T11:41:42.706Z,35.60
2022-09-06T11:47:03.421Z,35.60
2022-09-06T11:52:59.340Z,35.70
2022-09-06T11:58:05.505Z,35.80
2022-09-06T12:08:35.882Z,35.90
2022-09-06T12:14:02.542Z,36.00
2022-09-06T12:19:07.803Z,36.00
2022-09-06T12:24:41.696Z,36.00
2022-09-06T12:29:58.268Z,35.80
2022-09-06T12:40:31.647Z,35.70
2022-09-06T12:45:35.145Z,35.60
2022-09-06T12:50:40.584Z,35.40
2022-09-06T12:55:43.852Z,35.30
2022-09-06T13:00:52.089Z,35.20
2022-09-06T13:05:57.801Z,35.10
2022-09-06T13:11:01.675Z,35.10
2022-09-06T13:16:05.190Z,35.00
2022-09-06T13:21:14.275Z,35.00
2022-09-06T13:26:34.320Z,35.00
2022-09-06T13:31:37.800Z,35.10
2022-09-06T13:36:50.680Z,35.10
2022-09-06T13:41:57.730Z,35.00
2022-09-06T13:47:01.266Z,34.90
2022-09-06T13:52:07.375Z,34.90
2022-09-06T13:57:10.944Z,34.80
2022-09-06T14:02:17.889Z,34.80
2022-09-06T14:07:22.953Z,34.80
2022-09-06T14:12:26.140Z,34.70
2022-09-06T14:17:29.373Z,34.80
2022-09-06T14:22:33.900Z,34.80
2022-09-06T14:27:37.166Z,34.70
2022-09-06T14:32:40.479Z,34.60
2022-09-06T14:37:45.034Z,34.50
2022-09-06T14:42:50.546Z,34.40
2022-09-06T14:47:54.093Z,34.30
2022-09-06T14:52:58.742Z,34.10
2022-09-06T14:58:01.916Z,34.00
2022-09-06T15:03:05.218Z,33.90
2022-09-06T15:08:09.937Z,33.70
2022-09-06T15:13:13.533Z,33.60
2022-09-06T15:18:16.803Z,33.40
2022-09-06T15:23:25.179Z,33.40
2022-09-06T15:28:29.053Z,33.20
2022-09-06T15:33:33.277Z,33.20
2022-09-06T15:38:41.274Z,33.10
2022-09-06T15:43:47.000Z,33.00
2022-09-06T15:48:53.623Z,32.90
2022-09-06T15:54:00.117Z,32.80
2022-09-06T15:59:03.428Z,32.70
2022-09-06T16:04:07.797Z,32.70
2022-09-06T16:09:14.850Z,32.60
2022-09-06T16:14:18.616Z,32.50
2022-09-06T16:19:21.809Z,32.50
2022-09-06T16:24:26.927Z,32.50
2022-09-06T16:29:30.198Z,32.40
2022-09-06T16:34:33.669Z,32.30
2022-09-06T16:39:38.602Z,32.30
2022-09-06T16:44:41.892Z,32.20
2022-09-06T16:49:45.405Z,32.10
2022-09-06T16:54:50.325Z,32.10
2022-09-06T16:59:53.539Z,32.10
2022-09-06T17:04:56.699Z,32.00
2022-09-06T17:10:01.294Z,32.00
2022-09-06T17:15:04.788Z,31.90
2022-09-06T17:20:09.828Z,31.90
2022-09-06T17:25:14.822Z,31.90
2022-09-06T17:30:18.395Z,31.80
2022-09-06T17:35:21.683Z,31.80
2022-09-06T17:40:26.525Z,31.70
2022-09-06T17:45:30.446Z,31.70
2022-09-06T17:50:34.742Z,31.70
2022-09-06T17:55:42.477Z,31.70
2022-09-06T18:00:46.141Z,31.70
2022-09-06T18:05:49.563Z,31.70
2022-09-06T18:10:54.144Z,31.70
2022-09-06T18:15:57.933Z,31.60
2022-09-06T18:21:02.968Z,31.60
2022-09-06T18:26:09.394Z,31.60
2022-09-06T18:31:14.819Z,31.50
2022-09-06T18:36:19.825Z,31.50
2022-09-06T18:41:42.889Z,31.50
2022-09-06T18:46:46.609Z,31.40
2022-09-06T18:51:50.703Z,31.40
2022-09-06T18:56:55.707Z,31.30
2022-09-06T19:01:59.710Z,31.30
2022-09-06T19:07:04.213Z,31.20
2022-09-06T19:12:12.017Z,31.20
2022-09-06T19:17:16.043Z,31.20
2022-09-06T19:22:19.664Z,31.20
2022-09-06T19:27:24.656Z,31.10
2022-09-06T19:32:28.029Z,31.10
2022-09-06T19:37:32.012Z,31.00
2022-09-06T19:42:36.967Z,31.00
2022-09-06T19:47:40.978Z,31.00
2022-09-06T19:52:44.629Z,30.90
2022-09-06T19:57:49.982Z,30.90
2022-09-06T20:02:53.652Z,30.80
2022-09-06T20:07:57.262Z,30.90
2022-09-06T20:13:02.403Z,30.80
2022-09-06T20:18:06.214Z,30.80
2022-09-06T20:23:10.535Z,30.80
2022-09-06T20:28:17.269Z,30.70
2022-09-06T20:33:20.918Z,30.70
2022-09-06T20:38:24.850Z,30.70
2022-09-06T20:43:31.808Z,30.60
2022-09-06T20:48:43.679Z,30.60
2022-09-06T20:53:49.484Z,30.60
2022-09-06T20:58:56.026Z,30.50
2022-09-06T21:04:00.829Z,30.50
2022-09-06T21:09:05.852Z,30.40
2022-09-06T21:14:12.074Z,30.40
2022-09-06T21:19:15.328Z,30.30
2022-09-06T21:24:19.346Z,30.30
2022-09-06T21:29:25.086Z,30.30
2022-09-06T21:34:28.253Z,30.30
2022-09-06T21:39:31.721Z,30.30
2022-09-06T21:44:36.271Z,30.20
2022-09-06T21:49:39.448Z,30.20
2022-09-06T21:54:42.678Z,30.20
2022-09-06T21:59:47.204Z,30.20
2022-09-06T22:04:50.773Z,30.20
2022-09-06T22:09:53.992Z,30.20
2022-09-06T22:14:58.532Z,30.20
2022-09-06T22:20:01.926Z,30.10
2022-09-06T22:25:05.536Z,30.10
2022-09-06T22:30:11.168Z,30.10
2022-09-06T22:35:14.436Z,30.00
2022-09-06T22:40:17.875Z,30.00
2022-09-06T22:45:22.549Z,30.00
2022-09-06T22:50:25.949Z,30.00
2022-09-06T22:55:29.170Z,29.90
2022-09-06T23:00:36.932Z,29.90
2022-09-06T23:05:40.312Z,29.90
2022-09-06T23:10:44.842Z,29.90
2022-09-06T23:15:49.486Z,29.80
2022-09-06T23:20:52.901Z,29.90
2022-09-06T23:25:56.092Z,29.90
2022-09-06T23:31:02.905Z,29.80
2022-09-06T23:36:07.549Z,29.80
2022-09-06T23:41:11.762Z,29.80
2022-09-06T23:46:16.436Z,29.80
2022-09-06T23:51:20.493Z,29.80
2022-09-06T23:56:23.697Z,29.80
